Time;durP1;ratioP1;P1;durP2;ratioP2;P2;SDS_P1;SDS_P2;PMS_P1;PMS_P2;Temp;Humidity;BMP_temperature;BMP_pressure;BME280_temperature;BME280_humidity;BME280_pressure;Samples;Min_cycle;Max_cycle;Signal;HPM_P1;HPM_P2
2022/07/28 00:01:06;;;;;;;0.00;0.00;;;28.10;45.50;;;;;;5079318;28;20032;-74
2022/07/28 00:03:32;;;;;;;0.00;0.00;;;28.00;45.30;;;;;;5072433;28;20368;-74
2022/07/28 00:05:58;;;;;;;0.20;0.20;;;28.00;44.70;;;;;;5093870;28;20024;-74
2022/07/28 00:08:24;;;;;;;0.00;0.00;;;28.10;44.50;;;;;;5087752;28;20081;-74
2022/07/28 00:10:50;;;;;;;0.00;0.00;;;28.10;44.40;;;;;;5072831;28;20543;-74
2022/07/28 00:13:16;;;;;;;0.00;0.00;;;28.10;44.20;;;;;;5094453;28;20073;-74
2022/07/28 00:15:42;;;;;;;0.20;0.20;;;28.20;44.10;;;;;;5095720;28;20024;-74
2022/07/28 00:18:08;;;;;;;0.00;0.00;;;28.20;43.90;;;;;;5084520;28;20508;-74
2022/07/28 00:20:34;;;;;;;0.00;0.00;;;28.20;43.40;;;;;;5086351;28;20016;-74
2022/07/28 00:23:00;;;;;;;0.65;0.65;;;28.30;43.70;;;;;;5066315;28;20028;-74
2022/07/28 00:25:26;;;;;;;0.35;0.35;;;28.30;43.50;;;;;;5084576;28;20468;-74
2022/07/28 00:27:52;;;;;;;0.00;0.00;;;28.40;43.00;;;;;;5083899;28;20032;-74
2022/07/28 00:30:18;;;;;;;0.00;0.00;;;28.50;42.60;;;;;;5075202;28;20020;-74
2022/07/28 00:32:45;;;;;;;0.00;0.00;;;28.50;42.70;;;;;;5084308;28;20032;-73
2022/07/28 00:35:11;;;;;;;0.00;0.00;;;28.60;42.60;;;;;;5093125;28;20035;-73
2022/07/28 00:37:37;;;;;;;0.00;0.00;;;28.70;42.40;;;;;;5094226;28;20028;-73
2022/07/28 00:40:03;;;;;;;0.00;0.00;;;28.50;43.20;;;;;;5093657;28;20484;-74
2022/07/28 00:42:29;;;;;;;0.00;0.00;;;28.50;43.80;;;;;;5089811;28;20472;-73
2022/07/28 00:44:55;;;;;;;0.00;0.00;;;28.20;45.50;;;;;;5092950;28;20093;-73
2022/07/28 00:47:21;;;;;;;0.00;0.00;;;28.20;45.10;;;;;;5083951;28;20109;-73
2022/07/28 00:49:49;;;;;;;0.00;0.00;;;28.10;45.50;;;;;;5074970;28;20105;-73
2022/07/28 00:52:17;;;;;;;13.25;3.55;;;28.40;44.50;;;;;;5075522;28;20080;-73
2022/07/28 00:54:43;;;;;;;237.25;45.72;;;28.70;44.50;;;;;;5076884;28;20032;-73
2022/07/28 00:57:09;;;;;;;0.00;0.00;;;29.00;44.50;;;;;;5076104;28;20051;-73
2022/07/28 00:59:35;;;;;;;0.00;0.00;;;29.10;43.90;;;;;;5095346;28;20024;-73
2022/07/28 01:02:01;;;;;;;0.00;0.00;;;29.10;44.00;;;;;;5092516;28;20100;-74
2022/07/28 01:04:28;;;;;;;0.00;0.00;;;29.10;44.60;;;;;;5090307;28;20102;-75
2022/07/28 01:07:13;;;;;;;0.00;0.00;;;29.00;44.60;;;;;;5079952;28;20024;-74
2022/07/28 01:09:51;;;;;;;0.00;0.00;;;29.20;44.30;;;;;;5091384;28;21063;-74
2022/07/28 01:12:37;;;;;;;0.08;0.08;;;29.30;44.20;;;;;;5074740;28;20082;-74
2022/07/28 01:15:08;;;;;;;0.00;0.00;;;29.30;44.10;;;;;;5085859;28;20085;-74
2022/07/28 01:17:52;;;;;;;0.30;0.30;;;29.30;44.90;;;;;;5067264;28;20097;-74
2022/07/28 01:20:21;;;;;;;4.32;4.03;;;29.30;45.60;;;;;;5089853;28;20016;-74
2022/07/28 01:22:59;;;;;;;0.15;0.15;;;29.40;45.20;;;;;;5090902;28;20012;-74
2022/07/28 01:26:07;;;;;;;1.48;1.38;;;29.40;45.00;;;;;;5066522;28;20067;-74
2022/07/28 01:29:10;;;;;;;0.00;0.00;;;29.60;44.60;;;;;;5079399;28;20028;-74
2022/07/28 01:31:48;;;;;;;0.20;0.08;;;29.60;43.70;;;;;;5104233;28;20491;-74
2022/07/28 01:34:22;;;;;;;0.15;0.15;;;29.80;43.70;;;;;;5104515;28;20468;-74
2022/07/28 01:36:59;;;;;;;0.00;0.00;;;29.90;43.40;;;;;;5098875;28;20024;-73
2022/07/28 01:39:31;;;;;;;0.85;0.85;;;29.90;42.20;;;;;;5099425;28;20027;-73
2022/07/28 01:41:58;;;;;;;0.00;0.00;;;30.10;41.90;;;;;;5089298;28;20051;-73
2022/07/28 01:44:27;;;;;;;0.00;0.00;;;30.40;41.90;;;;;;5102273;28;20322;-73
2022/07/28 01:46:56;;;;;;;0.00;0.00;;;30.60;40.90;;;;;;5103168;28;20026;-74
2022/07/28 01:49:25;;;;;;;0.00;0.00;;;30.80;40.80;;;;;;5087399;28;20042;-74
2022/07/28 01:51:54;;;;;;;0.45;0.45;;;31.10;40.00;;;;;;5092804;28;20034;-74
2022/07/28 01:54:23;;;;;;;3.08;2.85;;;31.30;39.70;;;;;;5066079;28;20031;-76
2022/07/28 01:56:52;;;;;;;0.00;0.00;;;31.30;39.20;;;;;;5087882;28;20028;-75
2022/07/28 01:59:19;;;;;;;4.03;3.72;;;31.50;38.60;;;;;;5104594;28;20398;-75
2022/07/28 02:01:47;;;;;;;0.32;0.32;;;31.50;38.30;;;;;;5085238;28;20384;-78
2022/07/28 02:04:17;;;;;;;0.13;0.13;;;31.50;38.30;;;;;;5074425;28;20441;-78
2022/07/28 02:06:46;;;;;;;1.25;1.25;;;31.50;38.20;;;;;;5086657;28;20056;-76
2022/07/28 02:09:12;;;;;;;0.00;0.00;;;31.40;38.40;;;;;;5071121;28;20081;-77
2022/07/28 02:11:40;;;;;;;0.10;0.10;;;31.50;38.10;;;;;;5088317;28;20116;-77
2022/07/28 02:14:21;;;;;;;0.98;0.63;;;31.20;38.20;;;;;;5072111;28;20056;-76
2022/07/28 02:17:06;;;;;;;0.00;0.00;;;31.50;37.70;;;;;;5071087;28;20031;-77
2022/07/28 02:19:34;;;;;;;0.00;0.00;;;31.80;37.00;;;;;;5081788;28;20023;-77
2022/07/28 02:22:02;;;;;;;0.00;0.00;;;31.90;36.40;;;;;;5075424;28;20440;-78
2022/07/28 02:24:30;;;;;;;0.00;0.00;;;31.60;36.20;;;;;;5079239;28;20052;-77
2022/07/28 02:27:13;;;;;;;9.10;7.72;;;31.60;36.60;;;;;;5078428;28;20027;-78
2022/07/28 02:29:46;;;;;;;0.00;0.00;;;31.50;37.00;;;;;;5064525;28;20673;-78
2022/07/28 02:32:32;;;;;;;3.50;3.40;;;31.50;36.70;;;;;;5092680;28;20028;-78
2022/07/28 02:35:10;;;;;;;0.00;0.00;;;31.40;37.10;;;;;;5064057;28;20064;-77
2022/07/28 02:37:45;;;;;;;0.00;0.00;;;31.60;37.20;;;;;;5063997;28;20037;-76
2022/07/28 02:40:14;;;;;;;0.00;0.00;;;31.80;37.20;;;;;;5088067;28;20053;-77
2022/07/28 02:42:42;;;;;;;0.22;0.22;;;32.50;36.40;;;;;;5070829;28;20083;-77
2022/07/28 02:45:11;;;;;;;0.00;0.00;;;33.30;35.70;;;;;;5089491;28;20016;-78
2022/07/28 02:47:44;;;;;;;0.20;0.20;;;33.30;35.20;;;;;;5086941;28;20028;-77
2022/07/28 02:50:13;;;;;;;2.83;2.17;;;34.10;34.50;;;;;;5080154;28;20028;-78
2022/07/28 02:52:41;;;;;;;0.38;0.38;;;34.90;33.70;;;;;;5070903;28;20056;-77
2022/07/28 02:55:10;;;;;;;0.00;0.00;;;34.20;33.80;;;;;;5067211;28;20362;-77
2022/07/28 02:57:39;;;;;;;1.50;0.50;;;34.70;33.20;;;;;;5071823;28;20046;-78
2022/07/28 03:00:05;;;;;;;0.00;0.00;;;35.10;32.30;;;;;;5069635;28;20113;-79
2022/07/28 03:02:35;;;;;;;0.00;0.00;;;34.30;33.30;;;;;;5090576;28;20020;-78
2022/07/28 03:05:02;;;;;;;0.00;0.00;;;34.20;31.90;;;;;;5074642;28;20050;-78
2022/07/28 03:07:31;;;;;;;0.60;0.60;;;34.10;32.00;;;;;;5093208;28;20024;-78
2022/07/28 03:09:58;;;;;;;0.00;0.00;;;34.40;31.90;;;;;;5091031;28;20070;-78
2022/07/28 03:12:25;;;;;;;0.10;0.10;;;34.80;31.10;;;;;;5073902;28;20024;-78
2022/07/28 03:14:51;;;;;;;0.45;0.45;;;34.70;30.90;;;;;;5069938;28;20031;-77
2022/07/28 03:17:18;;;;;;;2.28;0.57;;;34.30;31.80;;;;;;5084428;28;20042;-78
2022/07/28 03:19:44;;;;;;;0.10;0.10;;;34.00;31.60;;;;;;5065973;28;20035;-77
2022/07/28 03:22:14;;;;;;;0.00;0.00;;;34.00;32.10;;;;;;5070235;28;20050;-78
2022/07/28 03:25:01;;;;;;;0.00;0.00;;;34.80;31.60;;;;;;5086443;28;20500;-78
2022/07/28 03:27:32;;;;;;;2.05;0.68;;;35.20;30.80;;;;;;5066965;28;20123;-77
2022/07/28 03:30:13;;;;;;;0.20;0.20;;;34.10;30.70;;;;;;5082920;28;20062;-79
2022/07/28 03:33:00;;;;;;;3.22;0.25;;;34.10;31.10;;;;;;5088352;28;20024;-79
2022/07/28 03:35:29;;;;;;;0.00;0.00;;;33.90;31.90;;;;;;5088380;28;20016;-79
2022/07/28 03:38:04;;;;;;;0.00;0.00;;;34.40;30.50;;;;;;5088782;28;20024;-77
2022/07/28 03:40:31;;;;;;;1.75;0.40;;;34.90;30.00;;;;;;5085688;28;20106;-77
2022/07/28 03:43:02;;;;;;;50.33;6.68;;;34.20;31.20;;;;;;5096888;28;20181;-77
2022/07/28 03:45:29;;;;;;;4.43;4.10;;;34.10;31.00;;;;;;5088916;28;20020;-77
2022/07/28 03:47:57;;;;;;;0.00;0.00;;;33.90;31.40;;;;;;5086937;28;20033;-76
2022/07/28 03:50:24;;;;;;;4.78;1.65;;;33.10;32.80;;;;;;5068079;28;20135;-77
2022/07/28 03:52:51;;;;;;;0.15;0.15;;;33.20;31.90;;;;;;5061319;28;20115;-77
2022/07/28 03:55:18;;;;;;;1.00;0.80;;;33.40;32.10;;;;;;5088886;28;20024;-77
2022/07/28 03:57:44;;;;;;;0.00;0.00;;;33.40;32.00;;;;;;5093528;28;20044;-76
2022/07/28 04:00:13;;;;;;;8.52;0.98;;;33.50;32.40;;;;;;5088577;28;20013;-76
2022/07/28 04:02:42;;;;;;;0.00;0.00;;;32.50;32.60;;;;;;5086124;28;20020;-75
2022/07/28 04:05:16;;;;;;;0.00;0.00;;;32.70;32.70;;;;;;5066601;28;20024;-76
2022/07/28 04:07:43;;;;;;;0.00;0.00;;;32.60;32.90;;;;;;5067287;28;20032;-75
2022/07/28 04:10:11;;;;;;;0.00;0.00;;;32.80;33.10;;;;;;5085450;28;20021;-77
2022/07/28 04:12:51;;;;;;;0.00;0.00;;;32.90;32.20;;;;;;5064802;28;20043;-76
2022/07/28 04:15:18;;;;;;;0.00;0.00;;;32.70;32.90;;;;;;5071161;28;20042;-77
2022/07/28 04:17:44;;;;;;;0.00;0.00;;;31.90;33.30;;;;;;5081428;28;20094;-78
2022/07/28 04:20:11;;;;;;;0.68;0.68;;;32.00;33.20;;;;;;5058729;28;20585;-75
2022/07/28 04:22:37;;;;;;;0.00;0.00;;;32.30;33.10;;;;;;5082846;28;20083;-77
2022/07/28 04:25:05;;;;;;;0.10;0.10;;;32.10;33.00;;;;;;5077653;28;20020;-78
2022/07/28 04:27:33;;;;;;;0.00;0.00;;;32.40;33.30;;;;;;5064483;28;20024;-78
2022/07/28 04:29:59;;;;;;;0.00;0.00;;;32.20;33.70;;;;;;5083923;28;20472;-77
2022/07/28 04:32:25;;;;;;;0.00;0.00;;;32.20;34.50;;;;;;5084251;28;20035;-75
2022/07/28 04:34:51;;;;;;;0.00;0.00;;;32.20;34.60;;;;;;5083545;28;20048;-75
2022/07/28 04:37:17;;;;;;;0.00;0.00;;;31.90;35.00;;;;;;5091120;28;20028;-77
2022/07/28 04:39:44;;;;;;;0.00;0.00;;;31.60;35.10;;;;;;5084119;28;20040;-78
2022/07/28 04:42:10;;;;;;;5.65;3.78;;;31.90;35.30;;;;;;5082743;28;20016;-77
2022/07/28 04:44:41;;;;;;;8.95;8.45;;;32.00;34.70;;;;;;5085194;28;20062;-77
2022/07/28 04:47:08;;;;;;;0.05;0.05;;;32.00;34.10;;;;;;5069331;28;20494;-77
2022/07/28 04:49:34;;;;;;;1.88;1.77;;;32.40;32.60;;;;;;5091136;28;20118;-77
2022/07/28 04:52:00;;;;;;;0.00;0.00;;;32.40;32.50;;;;;;5092025;28;20473;-77
2022/07/28 04:54:26;;;;;;;0.00;0.00;;;32.40;32.50;;;;;;5103431;28;20099;-76
2022/07/28 04:56:52;;;;;;;0.00;0.00;;;32.50;32.20;;;;;;5089644;28;20839;-77
2022/07/28 04:59:18;;;;;;;0.00;0.00;;;32.70;32.30;;;;;;5071538;28;20146;-77
2022/07/28 05:01:44;;;;;;;0.05;0.05;;;32.40;33.50;;;;;;5081901;28;20099;-76
2022/07/28 05:04:10;;;;;;;0.32;0.32;;;32.00;35.00;;;;;;5088945;28;20038;-75
2022/07/28 05:06:36;;;;;;;0.00;0.00;;;31.80;35.40;;;;;;5061181;28;20469;-76
2022/07/28 05:09:03;;;;;;;0.10;0.10;;;32.10;35.30;;;;;;5061576;28;20028;-76
2022/07/28 05:11:29;;;;;;;0.00;0.00;;;32.00;34.90;;;;;;5069021;28;20029;-75
2022/07/28 05:13:55;;;;;;;0.00;0.00;;;31.80;35.20;;;;;;5084885;28;20518;-76
2022/07/28 05:16:21;;;;;;;0.00;0.00;;;31.60;35.00;;;;;;5065691;28;20520;-76
2022/07/28 05:18:47;;;;;;;0.00;0.00;;;32.00;33.50;;;;;;5084738;28;20641;-77
2022/07/28 05:21:13;;;;;;;0.00;0.00;;;32.00;34.00;;;;;;5070193;28;20062;-76
2022/07/28 05:23:39;;;;;;;0.22;0.22;;;32.30;32.70;;;;;;5084750;28;20068;-78
2022/07/28 05:26:06;;;;;;;0.00;0.00;;;32.20;34.10;;;;;;5087138;28;20575;-77
2022/07/28 05:28:33;;;;;;;0.00;0.00;;;32.20;33.90;;;;;;5059891;28;20588;-77
2022/07/28 05:30:59;;;;;;;0.00;0.00;;;32.10;32.80;;;;;;5077601;28;20067;-77
2022/07/28 05:33:25;;;;;;;1.45;0.30;;;32.40;32.50;;;;;;5091016;28;20031;-77
2022/07/28 05:35:58;;;;;;;0.00;0.00;;;32.20;32.90;;;;;;5087171;28;20527;-77
2022/07/28 05:38:25;;;;;;;0.00;0.00;;;32.40;32.10;;;;;;5066102;28;20514;-78
2022/07/28 05:40:51;;;;;;;0.00;0.00;;;32.50;32.50;;;;;;5077702;28;20032;-77
2022/07/28 05:43:18;;;;;;;0.00;0.00;;;32.40;31.70;;;;;;5081060;28;20281;-76
2022/07/28 05:45:45;;;;;;;0.10;0.00;;;32.70;31.90;;;;;;5076643;28;20016;-77
2022/07/28 05:48:12;;;;;;;0.00;0.00;;;32.80;30.70;;;;;;5080329;28;20036;-77
2022/07/28 05:50:38;;;;;;;0.00;0.00;;;33.00;30.70;;;;;;5077444;28;20052;-78
2022/07/28 05:53:04;;;;;;;0.00;0.00;;;33.10;29.40;;;;;;5062984;28;20024;-78
2022/07/28 05:55:30;;;;;;;0.00;0.00;;;32.80;30.20;;;;;;5059058;28;20027;-78
2022/07/28 05:57:59;;;;;;;0.00;0.00;;;32.40;31.10;;;;;;5061545;28;20056;-78
2022/07/28 06:00:25;;;;;;;0.43;0.43;;;32.70;30.80;;;;;;5059468;28;20027;-78
2022/07/28 06:02:51;;;;;;;0.00;0.00;;;32.50;30.70;;;;;;5078178;28;20028;-78
2022/07/28 06:05:20;;;;;;;0.00;0.00;;;31.90;29.40;;;;;;5062339;28;20028;-78
2022/07/28 06:07:48;;;;;;;0.00;0.00;;;32.00;30.40;;;;;;5081115;28;20036;-77
2022/07/28 06:10:16;;;;;;;0.20;0.20;;;32.00;32.60;;;;;;5077504;28;20048;-77
2022/07/28 06:12:45;;;;;;;0.00;0.00;;;32.10;32.20;;;;;;5084155;28;20048;-78
2022/07/28 06:15:20;;;;;;;7.43;2.72;;;32.30;31.20;;;;;;5087750;28;20030;-77
2022/07/28 06:17:47;;;;;;;0.00;0.00;;;32.20;31.20;;;;;;5087844;28;20024;-78
2022/07/28 06:20:14;;;;;;;0.00;0.00;;;32.50;30.50;;;;;;5062715;28;20115;-76
2022/07/28 06:22:48;;;;;;;0.65;0.65;;;32.40;30.70;;;;;;5067342;28;20024;-77
2022/07/28 06:25:16;;;;;;;1.15;0.73;;;32.40;29.40;;;;;;5062647;28;20024;-77
2022/07/28 06:27:45;;;;;;;0.65;0.65;;;32.40;29.90;;;;;;5087393;28;20027;-76
2022/07/28 06:30:11;;;;;;;1.30;0.57;;;32.00;32.20;;;;;;5085125;28;20036;-76
2022/07/28 06:32:37;;;;;;;0.20;0.20;;;31.90;34.20;;;;;;5063571;28;20024;-76
2022/07/28 06:35:04;;;;;;;0.00;0.00;;;32.00;34.40;;;;;;5066173;28;20106;-77
2022/07/28 06:37:30;;;;;;;0.08;0.08;;;32.50;32.10;;;;;;5082987;28;20112;-77
2022/07/28 06:39:57;;;;;;;0.00;0.00;;;33.00;33.10;;;;;;5085479;28;20027;-76
2022/07/28 06:42:23;;;;;;;0.00;0.00;;;33.00;33.10;;;;;;5086873;28;21819;-77
2022/07/28 06:44:52;;;;;;;2.72;2.55;;;32.60;33.80;;;;;;5063953;28;20553;-76
2022/07/28 06:47:19;;;;;;;0.00;0.00;;;32.80;33.30;;;;;;5085169;28;20492;-77
2022/07/28 06:49:45;;;;;;;0.10;0.10;;;32.80;33.30;;;;;;5081802;28;22276;-77
2022/07/28 06:52:11;;;;;;;0.00;0.00;;;33.20;31.80;;;;;;5059485;28;20460;-77
2022/07/28 06:54:38;;;;;;;0.00;0.00;;;33.40;31.20;;;;;;5085638;28;20349;-78
2022/07/28 06:57:04;;;;;;;0.00;0.00;;;33.10;31.10;;;;;;5063180;28;20035;-76
2022/07/28 06:59:30;;;;;;;3.83;1.75;;;32.60;31.90;;;;;;5064866;28;20515;-78
2022/07/28 07:02:00;;;;;;;6.13;2.67;;;32.60;32.40;;;;;;5078397;28;20469;-77
2022/07/28 07:04:27;;;;;;;0.10;0.10;;;32.90;32.20;;;;;;5079568;28;20016;-76
2022/07/28 07:06:53;;;;;;;0.00;0.00;;;33.10;31.50;;;;;;5080220;28;20084;-76
2022/07/28 07:09:19;;;;;;;0.00;0.00;;;33.20;31.40;;;;;;5078320;28;20024;-77
2022/07/28 07:11:45;;;;;;;0.10;0.10;;;33.40;31.20;;;;;;5079315;28;20107;-77
2022/07/28 07:14:11;;;;;;;0.00;0.00;;;32.50;33.10;;;;;;5081667;28;20028;-76
2022/07/28 07:16:37;;;;;;;1.10;1.10;;;33.00;32.50;;;;;;5078611;28;20021;-75
2022/07/28 07:19:03;;;;;;;1.85;0.75;;;33.50;31.30;;;;;;5099095;28;20024;-77
2022/07/28 07:21:29;;;;;;;0.00;0.00;;;33.60;31.80;;;;;;5086050;28;20028;-77
2022/07/28 07:23:57;;;;;;;0.00;0.00;;;33.60;31.60;;;;;;5076835;28;20029;-77
2022/07/28 07:26:23;;;;;;;0.77;0.55;;;33.90;30.60;;;;;;5060249;28;20032;-77
2022/07/28 07:28:49;;;;;;;0.30;0.25;;;32.70;32.20;;;;;;5062104;28;20039;-76
2022/07/28 07:31:15;;;;;;;0.63;0.55;;;33.20;32.10;;;;;;5087730;28;20024;-76
2022/07/28 07:33:41;;;;;;;2.95;0.35;;;33.90;30.60;;;;;;5081177;28;20021;-76
2022/07/28 07:36:08;;;;;;;0.00;0.00;;;34.40;30.30;;;;;;5087099;28;20573;-76
2022/07/28 07:38:34;;;;;;;0.70;0.70;;;34.50;29.60;;;;;;5082526;28;20028;-76
2022/07/28 07:41:00;;;;;;;0.00;0.00;;;34.50;29.60;;;;;;5080610;28;20076;-77
2022/07/28 07:43:26;;;;;;;0.00;0.00;;;35.00;29.50;;;;;;5076839;28;20079;-77
2022/07/28 07:45:52;;;;;;;0.00;0.00;;;35.20;29.70;;;;;;5078730;28;20895;-78
2022/07/28 07:48:19;;;;;;;0.10;0.10;;;34.60;30.50;;;;;;5085681;28;20020;-76
2022/07/28 07:50:45;;;;;;;0.00;0.00;;;34.60;30.00;;;;;;5083542;28;20109;-77
2022/07/28 07:53:11;;;;;;;0.00;0.00;;;34.20;30.50;;;;;;5067088;28;20379;-76
2022/07/28 07:55:37;;;;;;;0.47;0.47;;;34.40;30.50;;;;;;5087541;28;20030;-76
2022/07/28 07:58:03;;;;;;;0.10;0.00;;;34.50;30.00;;;;;;5086966;28;20055;-77
2022/07/28 08:00:29;;;;;;;0.00;0.00;;;34.70;30.50;;;;;;5070511;28;20024;-76
2022/07/28 08:02:59;;;;;;;0.00;0.00;;;35.00;30.00;;;;;;5076628;28;20024;-77
2022/07/28 08:05:26;;;;;;;0.88;0.88;;;35.00;29.90;;;;;;5090072;28;20013;-76
2022/07/28 08:07:52;;;;;;;0.00;0.00;;;35.10;30.00;;;;;;5077515;28;20046;-76
2022/07/28 08:10:24;;;;;;;0.43;0.43;;;35.20;29.90;;;;;;5075794;28;20077;-76
2022/07/28 08:12:50;;;;;;;0.00;0.00;;;34.40;30.50;;;;;;5073249;28;20039;-76
2022/07/28 08:15:16;;;;;;;1.20;0.43;;;34.00;30.90;;;;;;5091163;28;20107;-76
2022/07/28 08:17:42;;;;;;;0.00;0.00;;;33.80;31.00;;;;;;5091883;28;20094;-76
2022/07/28 08:20:09;;;;;;;0.00;0.00;;;33.60;31.90;;;;;;5084085;28;20024;-76
2022/07/28 08:22:49;;;;;;;0.17;0.17;;;33.30;32.30;;;;;;5089990;28;21029;-77
2022/07/28 08:25:16;;;;;;;0.70;0.43;;;33.60;31.90;;;;;;5098137;28;20028;-75
2022/07/28 08:27:42;;;;;;;0.10;0.10;;;33.50;31.30;;;;;;5094168;28;20016;-76
2022/07/28 08:30:10;;;;;;;2.95;2.70;;;33.80;31.40;;;;;;5090774;28;20059;-76
2022/07/28 08:32:36;;;;;;;0.00;0.00;;;33.90;31.00;;;;;;5077020;28;20028;-76
2022/07/28 08:35:03;;;;;;;0.40;0.38;;;34.10;30.70;;;;;;5069709;28;20454;-76
2022/07/28 08:37:29;;;;;;;2.95;2.85;;;34.00;30.60;;;;;;5068729;28;20021;-77
2022/07/28 08:39:55;;;;;;;0.10;0.10;;;34.30;31.00;;;;;;5087782;28;20370;-76
2022/07/28 08:42:37;;;;;;;0.00;0.00;;;34.20;30.90;;;;;;5089813;28;20080;-79
2022/07/28 08:45:05;;;;;;;0.00;0.00;;;34.70;30.90;;;;;;5087471;28;20092;-78
2022/07/28 08:47:34;;;;;;;0.00;0.00;;;34.90;31.00;;;;;;5067856;28;20500;-76
2022/07/28 08:50:00;;;;;;;0.10;0.10;;;34.90;30.90;;;;;;5084492;28;20476;-76
2022/07/28 08:52:31;;;;;;;0.15;0.15;;;34.90;30.90;;;;;;5089166;28;20059;-76
2022/07/28 08:55:00;;;;;;;0.10;0.10;;;34.80;31.10;;;;;;5072445;28;20030;-74
2022/07/28 08:57:40;;;;;;;25.02;15.43;;;35.10;30.30;;;;;;5071812;28;20523;-76
2022/07/28 09:00:08;;;;;;;0.00;0.00;;;35.00;29.80;;;;;;5086480;28;20647;-76
2022/07/28 09:02:40;;;;;;;0.20;0.20;;;35.20;30.00;;;;;;5085273;28;20138;-76
2022/07/28 09:05:07;;;;;;;0.00;0.00;;;35.20;30.20;;;;;;5088811;28;20016;-75
2022/07/28 09:07:36;;;;;;;0.00;0.00;;;35.50;29.60;;;;;;5088554;28;20103;-74
2022/07/28 09:10:06;;;;;;;0.32;0.32;;;35.60;29.90;;;;;;5086226;28;20031;-77
2022/07/28 09:12:35;;;;;;;0.00;0.00;;;35.70;29.40;;;;;;5085284;28;20032;-77
2022/07/28 09:15:03;;;;;;;0.00;0.00;;;35.10;29.90;;;;;;5065046;28;20450;-77
2022/07/28 09:17:31;;;;;;;0.00;0.00;;;34.40;30.20;;;;;;5084219;28;20024;-77
2022/07/28 09:19:57;;;;;;;0.40;0.40;;;34.60;29.90;;;;;;5086093;28;20548;-76
2022/07/28 09:22:24;;;;;;;0.00;0.00;;;34.20;30.20;;;;;;5089174;28;20493;-76
2022/07/28 09:24:51;;;;;;;0.00;0.00;;;34.00;30.00;;;;;;5083460;28;20024;-77
2022/07/28 09:27:17;;;;;;;0.00;0.00;;;33.80;30.50;;;;;;5089860;28;20024;-76
2022/07/28 09:29:56;;;;;;;0.00;0.00;;;33.90;30.70;;;;;;5100226;28;20077;-77
2022/07/28 09:32:23;;;;;;;0.08;0.08;;;34.30;30.80;;;;;;5069996;28;20432;-77
2022/07/28 09:34:49;;;;;;;0.00;0.00;;;33.80;31.40;;;;;;5075110;28;20031;-77
2022/07/28 09:37:26;;;;;;;0.00;0.00;;;33.90;31.20;;;;;;5092335;28;20024;-77
2022/07/28 09:39:56;;;;;;;0.00;0.00;;;34.20;30.90;;;;;;5092290;28;20106;-77
2022/07/28 09:42:23;;;;;;;0.45;0.30;;;34.00;30.50;;;;;;5088714;28;20012;-77
2022/07/28 09:45:04;;;;;;;0.35;0.35;;;33.90;30.50;;;;;;5071662;28;20050;-77
2022/07/28 09:47:31;;;;;;;0.38;0.38;;;33.90;30.80;;;;;;5086800;28;20031;-78
2022/07/28 09:49:58;;;;;;;2.25;2.05;;;33.80;30.40;;;;;;5080965;28;20488;-76
2022/07/28 09:52:31;;;;;;;0.00;0.00;;;33.30;31.20;;;;;;5075770;28;20032;-78
2022/07/28 09:55:07;;;;;;;0.00;0.00;;;33.30;31.00;;;;;;5088555;28;20206;-77
2022/07/28 09:57:35;;;;;;;0.10;0.10;;;33.30;30.90;;;;;;5066229;28;20097;-77
2022/07/28 10:00:05;;;;;;;0.00;0.00;;;33.40;30.90;;;;;;5071215;28;20020;-82
2022/07/28 10:02:32;;;;;;;0.00;0.00;;;33.40;30.80;;;;;;5067081;28;20401;-78
2022/07/28 10:04:59;;;;;;;0.00;0.00;;;33.60;31.10;;;;;;5064027;28;20610;-77
2022/07/28 10:07:30;;;;;;;0.00;0.00;;;33.60;30.40;;;;;;5066432;28;20037;-78
2022/07/28 10:10:06;;;;;;;0.00;0.00;;;33.50;30.50;;;;;;5062655;28;20111;-81
2022/07/28 10:12:34;;;;;;;0.00;0.00;;;33.50;30.40;;;;;;5068554;28;20021;-78
2022/07/28 10:18:03;;;;;;;0.00;0.00;;;33.60;30.70;;;;;;5063822;28;20078;-81
2022/07/28 10:20:31;;;;;;;0.00;0.00;;;33.90;30.50;;;;;;5071856;28;20016;-80
2022/07/28 10:23:07;;;;;;;0.10;0.10;;;34.00;30.60;;;;;;5076583;28;20029;-78
2022/07/28 10:25:34;;;;;;;0.00;0.00;;;34.20;30.40;;;;;;5101965;28;20021;-79
2022/07/28 10:28:02;;;;;;;0.00;0.00;;;33.90;31.90;;;;;;5092400;28;20028;-81
2022/07/28 10:30:30;;;;;;;0.00;0.00;;;33.90;31.20;;;;;;5078974;28;20101;-78
2022/07/28 10:33:00;;;;;;;0.00;0.00;;;34.20;30.50;;;;;;5073263;28;20051;-79
2022/07/28 10:35:26;;;;;;;0.65;0.60;;;34.50;30.60;;;;;;5060851;28;20469;-80
2022/07/28 10:38:03;;;;;;;0.00;0.00;;;34.80;29.90;;;;;;5064111;28;20123;-81
2022/07/28 10:40:34;;;;;;;0.00;0.00;;;35.10;29.50;;;;;;5067001;28;20119;-80
2022/07/28 10:43:01;;;;;;;0.00;0.00;;;35.20;29.30;;;;;;5066720;28;20036;-80
2022/07/28 10:45:28;;;;;;;0.30;0.30;;;34.30;31.30;;;;;;5065820;28;20039;-81
2022/07/28 10:47:54;;;;;;;24.98;23.17;;;34.60;30.00;;;;;;5064674;28;20024;-80
2022/07/28 10:50:21;;;;;;;0.00;0.00;;;34.80;30.20;;;;;;5065017;28;20066;-79
2022/07/28 10:52:48;;;;;;;7.22;1.95;;;34.70;30.20;;;;;;5064151;28;20051;-78
2022/07/28 10:55:39;;;;;;;0.00;0.00;;;34.80;29.80;;;;;;5063418;28;20067;-78
2022/07/28 10:58:10;;;;;;;0.10;0.10;;;34.70;30.30;;;;;;5064233;28;20036;-78
2022/07/28 11:00:45;;;;;;;0.00;0.00;;;34.30;31.20;;;;;;5077727;28;21034;-78
2022/07/28 11:03:41;;;;;;;0.00;0.00;;;34.50;30.10;;;;;;5063635;28;20027;-78
2022/07/28 11:06:32;;;;;;;0.00;0.00;;;34.20;30.00;;;;;;5063227;28;20138;-77
2022/07/28 11:09:20;;;;;;;0.20;0.00;;;34.00;29.90;;;;;;5060533;28;20393;-78
2022/07/28 11:11:52;;;;;;;0.75;0.43;;;33.20;34.20;;;;;;5068315;28;20029;-77
2022/07/28 11:14:42;;;;;;;0.00;0.00;;;33.30;35.40;;;;;;5063454;28;20055;-77
2022/07/28 11:17:09;;;;;;;0.20;0.03;;;33.10;35.50;;;;;;5063479;28;20020;-77
2022/07/28 11:19:44;;;;;;;0.95;0.35;;;32.80;35.80;;;;;;5066243;28;20116;-76
2022/07/28 11:22:17;;;;;;;0.00;0.00;;;32.40;36.20;;;;;;5065396;28;20070;-76
2022/07/28 11:25:01;;;;;;;0.00;0.00;;;32.00;37.00;;;;;;5073623;28;20538;-76
2022/07/28 11:27:40;;;;;;;0.00;0.00;;;32.50;36.60;;;;;;5066744;28;20052;-79
2022/07/28 11:30:07;;;;;;;0.00;0.00;;;32.80;36.10;;;;;;5063954;28;20496;-79
2022/07/28 11:32:54;;;;;;;0.00;0.00;;;33.00;36.10;;;;;;5080698;28;20032;-79
2022/07/28 11:36:18;;;;;;;0.00;0.00;;;32.30;37.30;;;;;;5070053;28;20024;-81
2022/07/28 11:39:23;;;;;;;0.55;0.55;;;32.00;37.30;;;;;;5069449;28;20039;-79
2022/07/28 11:41:49;;;;;;;0.00;0.00;;;31.70;38.60;;;;;;5073006;28;20140;-79
2022/07/28 11:44:35;;;;;;;0.00;0.00;;;31.70;38.90;;;;;;5070095;28;20051;-78
2022/07/28 11:47:22;;;;;;;0.00;0.00;;;32.10;38.30;;;;;;5073636;28;20058;-80
2022/07/28 11:50:10;;;;;;;0.00;0.00;;;32.00;37.90;;;;;;5078627;28;20055;-79
2022/07/28 11:52:37;;;;;;;0.00;0.00;;;32.20;35.40;;;;;;5088758;28;20032;-80
2022/07/28 11:55:04;;;;;;;0.00;0.00;;;32.10;36.90;;;;;;5076463;28;20025;-79
2022/07/28 11:57:39;;;;;;;0.00;0.00;;;32.00;36.00;;;;;;5087888;28;20035;-78
2022/07/28 12:00:06;;;;;;;0.00;0.00;;;32.20;35.90;;;;;;5093798;28;20020;-78
2022/07/28 12:02:33;;;;;;;0.00;0.00;;;32.40;35.20;;;;;;5081242;28;20031;-80
2022/07/28 12:05:07;;;;;;;0.00;0.00;;;32.40;34.80;;;;;;5089648;28;20024;-79
2022/07/28 12:07:37;;;;;;;0.00;0.00;;;32.50;34.60;;;;;;5069331;28;20526;-79
2022/07/28 12:10:23;;;;;;;0.00;0.00;;;32.30;34.60;;;;;;5097325;28;20062;-79
2022/07/28 12:12:54;;;;;;;0.00;0.00;;;32.00;36.90;;;;;;5104259;28;20020;-78
2022/07/28 12:15:20;;;;;;;0.00;0.00;;;32.00;36.20;;;;;;5106900;28;20134;-78
2022/07/28 12:17:47;;;;;;;0.00;0.00;;;32.00;35.90;;;;;;5094239;28;20084;-78
2022/07/28 12:20:16;;;;;;;0.00;0.00;;;32.20;36.00;;;;;;5081574;28;20082;-78
2022/07/28 12:22:58;;;;;;;0.00;0.00;;;32.00;36.60;;;;;;5097145;28;20024;-78
2022/07/28 12:25:25;;;;;;;0.00;0.00;;;32.20;35.60;;;;;;5093676;28;20031;-78
2022/07/28 12:27:51;;;;;;;0.00;0.00;;;32.00;35.10;;;;;;5104814;28;20043;-79
2022/07/28 12:30:28;;;;;;;0.15;0.15;;;32.10;35.00;;;;;;5116722;28;20084;-78
2022/07/28 12:32:54;;;;;;;0.00;0.00;;;32.40;34.80;;;;;;5066619;28;20024;-78
2022/07/28 12:35:22;;;;;;;0.15;0.15;;;32.60;34.40;;;;;;5071751;28;20132;-79
2022/07/28 12:37:49;;;;;;;0.00;0.00;;;32.80;34.60;;;;;;5085159;28;20055;-77
2022/07/28 12:40:17;;;;;;;0.00;0.00;;;33.00;34.60;;;;;;5091914;28;20103;-78
2022/07/28 12:42:45;;;;;;;0.00;0.00;;;32.90;34.00;;;;;;5077847;28;20069;-78
2022/07/28 12:45:12;;;;;;;0.00;0.00;;;32.90;34.40;;;;;;5077720;28;20465;-78
2022/07/28 12:47:39;;;;;;;0.00;0.00;;;33.00;33.10;;;;;;5065005;28;20119;-79
2022/07/28 12:50:14;;;;;;;0.20;0.20;;;33.10;33.20;;;;;;5077317;28;20036;-79
2022/07/28 12:53:01;;;;;;;0.00;0.00;;;33.00;33.10;;;;;;5078022;28;20039;-79
2022/07/28 12:55:29;;;;;;;0.00;0.00;;;32.90;33.30;;;;;;5070190;28;20060;-80
2022/07/28 12:57:55;;;;;;;0.00;0.00;;;32.70;33.60;;;;;;5076826;28;20131;-79
2022/07/28 13:00:29;;;;;;;0.00;0.00;;;32.50;34.40;;;;;;5076731;28;20024;-79
2022/07/28 13:02:57;;;;;;;0.00;0.00;;;32.50;34.80;;;;;;5091948;28;20024;-78